createdAt,value
2019-04-21T00:01:58.216Z,57.70
2019-04-21T00:04:43.429Z,58.40
2019-04-21T00:07:28.062Z,59.10
2019-04-21T00:09:58.391Z,59.00
2019-04-21T00:12:28.634Z,59.40
2019-04-21T00:14:59.419Z,60.40
2019-04-21T00:17:24.865Z,60.80
2019-04-21T00:20:11.402Z,61.70
2019-04-21T00:22:44.299Z,63.00
2019-04-21T00:25:19.116Z,63.60
2019-04-21T00:27:57.702Z,65.10
2019-04-21T00:30:35.411Z,67.40
2019-04-21T00:32:56.429Z,69.20
2019-04-21T00:35:25.864Z,74.40
2019-04-21T00:38:17.079Z,77.20
2019-04-21T00:40:54.093Z,81.20
2019-04-21T00:43:22.316Z,83.40
2019-04-21T00:45:48.107Z,84.10
2019-04-21T00:51:27.530Z,86.80
2019-04-21T00:53:52.014Z,91.80
2019-04-21T00:56:21.247Z,93.90
2019-04-21T00:58:58.165Z,97.30
2019-04-21T01:01:26.738Z,99.90
2019-04-21T01:04:04.743Z,99.90
2019-04-21T01:06:35.917Z,99.90
2019-04-21T01:09:02.785Z,99.90
2019-04-21T01:11:47.374Z,99.90
2019-04-21T01:14:22.705Z,99.90
2019-04-21T01:16:53.069Z,99.90
2019-04-21T01:19:25.140Z,99.90
2019-04-21T01:21:39.885Z,99.90
2019-04-21T01:24:19.679Z,99.90
2019-04-21T01:26:58.097Z,99.90
2019-04-21T01:29:42.729Z,99.90
2019-04-21T01:32:19.429Z,99.90
2019-04-21T01:34:45.315Z,99.90
2019-04-21T01:37:30.459Z,99.90
2019-04-21T01:40:02.277Z,99.90
2019-04-21T01:42:33.532Z,99.90
2019-04-21T01:45:09.445Z,99.90
2019-04-21T01:47:41.503Z,99.90
2019-04-21T01:50:05.542Z,99.90
2019-04-21T01:55:45.558Z,99.90
2019-04-21T01:58:11.741Z,99.90
2019-04-21T02:00:51.959Z,99.90
2019-04-21T02:03:51.656Z,99.90
2019-04-21T02:06:15.947Z,99.90
2019-04-21T02:08:36.001Z,99.90
2019-04-21T02:11:18.817Z,99.90
2019-04-21T02:13:53.589Z,99.90
2019-04-21T02:16:23.044Z,99.90
2019-04-21T02:18:49.460Z,99.90
2019-04-21T02:21:22.104Z,99.90
2019-04-21T02:24:05.094Z,99.90
2019-04-21T02:26:40.015Z,99.90
2019-04-21T02:29:17.090Z,99.90
2019-04-21T02:34:23.552Z,99.90
2019-04-21T02:37:21.495Z,99.90
2019-04-21T02:39:58.379Z,99.90
2019-04-21T02:42:11.547Z,99.90
2019-04-21T02:47:27.420Z,99.90
2019-04-21T02:50:06.066Z,99.90
2019-04-21T03:00:16.006Z,99.90
2019-04-21T03:06:18.534Z,99.90
2019-04-21T03:08:44.300Z,99.90
2019-04-21T03:11:17.118Z,99.90
2019-04-21T03:19:06.645Z,99.90
2019-04-21T03:21:22.297Z,99.90
2019-04-21T03:26:42.318Z,99.90
2019-04-21T03:29:13.529Z,99.90
2019-04-21T03:32:05.543Z,99.90
2019-04-21T03:39:31.041Z,99.90
2019-04-21T03:42:07.283Z,99.90
2019-04-21T03:44:32.359Z,99.90
2019-04-21T03:47:08.452Z,99.90
2019-04-21T03:49:43.479Z,99.90
2019-04-21T03:55:41.511Z,99.90
2019-04-21T03:58:15.136Z,99.90
2019-04-21T04:06:19.629Z,99.90
2019-04-21T04:09:19.575Z,99.90
2019-04-21T04:11:31.643Z,99.90
2019-04-21T04:14:20.373Z,99.90
2019-04-21T04:16:49.092Z,99.90
2019-04-21T04:19:34.412Z,99.90
2019-04-21T04:24:34.025Z,99.90
2019-04-21T04:29:26.318Z,99.90
2019-04-21T04:31:55.516Z,99.90
2019-04-21T04:34:40.534Z,99.90
2019-04-21T04:42:45.947Z,99.90
2019-04-21T04:45:26.778Z,99.90
2019-04-21T04:47:56.704Z,99.90
2019-04-21T04:50:36.579Z,99.90
2019-04-21T04:53:04.589Z,99.90
2019-04-21T04:55:33.815Z,99.90
2019-04-21T04:58:19.074Z,99.90
2019-04-21T05:00:45.826Z,99.90
2019-04-21T05:03:11.766Z,99.90
2019-04-21T05:11:39.837Z,99.90
2019-04-21T05:14:06.245Z,99.90
2019-04-21T05:19:20.223Z,99.90
2019-04-21T05:24:08.105Z,99.90
2019-04-21T05:26:40.219Z,99.90
2019-04-21T05:29:10.992Z,99.90
2019-04-21T05:32:13.626Z,99.90
2019-04-21T05:34:31.594Z,99.90
2019-04-21T05:37:30.505Z,99.90
2019-04-21T05:40:09.253Z,99.90
2019-04-21T05:42:39.631Z,99.90
2019-04-21T05:45:24.163Z,99.90
2019-04-21T05:48:09.540Z,99.90
2019-04-21T05:50:26.580Z,99.90
2019-04-21T05:53:08.207Z,99.90
2019-04-21T05:55:51.773Z,99.90
2019-04-21T05:58:14.474Z,99.90
2019-04-21T06:03:36.861Z,99.90
2019-04-21T06:08:37.297Z,99.90
2019-04-21T06:11:14.870Z,99.90
2019-04-21T06:16:22.781Z,99.90
2019-04-21T06:21:26.371Z,99.90
2019-04-21T06:24:03.988Z,99.90
2019-04-21T06:29:15.007Z,99.90
2019-04-21T06:34:41.436Z,99.90
2019-04-21T06:37:29.908Z,99.90
2019-04-21T06:40:04.068Z,98.50
2019-04-21T06:42:16.207Z,96.90
2019-04-21T06:47:30.266Z,91.80
2019-04-21T06:50:14.602Z,90.40
2019-04-21T06:52:53.914Z,88.00
2019-04-21T06:55:24.229Z,85.60
2019-04-21T06:57:56.033Z,82.60
2019-04-21T07:00:33.091Z,80.80
2019-04-21T07:03:14.402Z,79.30
2019-04-21T07:05:42.473Z,77.50
2019-04-21T07:08:32.574Z,75.80
2019-04-21T07:10:48.030Z,74.00
2019-04-21T07:13:21.149Z,71.60
2019-04-21T07:16:02.843Z,70.20
2019-04-21T07:18:37.524Z,68.30
2019-04-21T07:21:04.692Z,67.30
2019-04-21T07:23:41.922Z,65.00
2019-04-21T07:26:17.923Z,63.00
2019-04-21T07:28:51.281Z,61.50
2019-04-21T07:31:17.890Z,59.90
2019-04-21T07:36:30.509Z,58.00
2019-04-21T07:38:55.629Z,56.80
2019-04-21T07:41:25.136Z,55.90
2019-04-21T07:44:00.364Z,54.50
2019-04-21T07:46:28.922Z,53.10
2019-04-21T07:49:20.144Z,53.10
2019-04-21T07:52:18.076Z,51.90
2019-04-21T07:54:56.842Z,51.90
2019-04-21T07:57:16.934Z,50.80
2019-04-21T08:00:13.254Z,50.10
2019-04-21T08:02:29.350Z,50.10
2019-04-21T08:05:14.565Z,49.90
2019-04-21T08:07:47.790Z,49.60
2019-04-21T08:10:09.182Z,49.10
2019-04-21T08:12:42.963Z,48.90
2019-04-21T08:15:24.335Z,47.90
2019-04-21T08:17:47.260Z,47.80
2019-04-21T08:20:23.983Z,48.00
2019-04-21T08:22:58.909Z,46.80
2019-04-21T08:25:34.889Z,46.00
2019-04-21T08:28:05.663Z,46.20
2019-04-21T08:30:58.831Z,44.90
2019-04-21T08:33:26.305Z,43.90
2019-04-21T08:38:20.366Z,43.10
2019-04-21T08:40:56.164Z,43.50
2019-04-21T08:43:37.070Z,42.70
2019-04-21T08:46:06.805Z,40.30
2019-04-21T08:48:34.952Z,39.20
2019-04-21T08:51:22.471Z,39.60
2019-04-21T08:53:49.293Z,38.20
2019-04-21T08:56:50.633Z,38.80
2019-04-21T08:59:31.780Z,37.80
2019-04-21T09:02:29.471Z,37.90
2019-04-21T09:04:59.203Z,37.60
2019-04-21T09:07:49.559Z,35.90
2019-04-21T09:10:02.915Z,36.40
2019-04-21T09:12:43.281Z,36.50
2019-04-21T09:15:14.413Z,35.10
2019-04-21T09:17:41.141Z,35.00
2019-04-21T09:22:54.259Z,34.90
2019-04-21T09:25:44.237Z,35.60
2019-04-21T09:28:08.086Z,35.20
2019-04-21T09:30:19.978Z,35.20
2019-04-21T09:32:55.093Z,33.90
2019-04-21T09:35:26.964Z,33.90
2019-04-21T09:38:07.791Z,34.30
2019-04-21T09:40:37.166Z,33.50
2019-04-21T09:43:10.325Z,33.40
2019-04-21T09:45:40.848Z,33.50
2019-04-21T09:48:18.599Z,32.50
2019-04-21T09:50:46.138Z,32.80
2019-04-21T09:53:28.503Z,32.60
2019-04-21T09:55:58.415Z,32.10
2019-04-21T09:58:32.814Z,32.60
2019-04-21T10:01:12.259Z,33.20
2019-04-21T10:03:41.229Z,32.70
2019-04-21T10:06:08.717Z,32.50
2019-04-21T10:08:40.748Z,33.50
2019-04-21T10:11:14.161Z,32.40
2019-04-21T10:13:46.364Z,31.90
2019-04-21T10:16:45.695Z,32.10
2019-04-21T10:19:17.740Z,31.70
2019-04-21T10:21:50.207Z,32.20
2019-04-21T10:24:22.642Z,32.00
2019-04-21T10:26:55.418Z,31.10
2019-04-21T10:29:30.929Z,31.30
2019-04-21T10:32:03.506Z,31.70
2019-04-21T10:34:37.107Z,32.50
2019-04-21T10:37:09.429Z,33.30
2019-04-21T10:39:42.935Z,40.90
2019-04-21T10:42:15.510Z,32.30
2019-04-21T10:44:49.376Z,30.30
2019-04-21T10:47:22.992Z,30.00
2019-04-21T10:49:55.853Z,30.80
2019-04-21T10:52:34.759Z,32.00
2019-04-21T10:55:23.340Z,28.80
2019-04-21T10:57:42.210Z,29.50
2019-04-21T11:00:16.052Z,30.00
2019-04-21T11:02:52.791Z,30.20
2019-04-21T11:05:24.904Z,30.20
2019-04-21T11:08:08.872Z,29.40
2019-04-21T11:10:32.002Z,29.30
2019-04-21T11:13:04.970Z,29.20
2019-04-21T11:15:37.049Z,29.90
2019-04-21T11:18:23.965Z,28.90
2019-04-21T11:21:00.765Z,29.60
2019-04-21T11:23:33.300Z,29.50
2019-04-21T11:26:06.744Z,29.30
2019-04-21T11:28:39.036Z,29.70
2019-04-21T11:31:11.124Z,29.70
2019-04-21T11:33:45.110Z,30.60
2019-04-21T11:36:17.462Z,30.90
2019-04-21T11:39:22.224Z,29.90
2019-04-21T11:41:45.733Z,29.80
2019-04-21T11:44:21.488Z,29.00
2019-04-21T11:46:52.491Z,29.50
2019-04-21T11:49:27.146Z,29.60
2019-04-21T11:51:58.721Z,29.10
2019-04-21T11:54:30.981Z,29.00
2019-04-21T11:57:13.879Z,28.50
2019-04-21T11:59:38.122Z,28.60
2019-04-21T12:02:11.986Z,28.90
2019-04-21T12:04:45.419Z,29.80
2019-04-21T12:07:19.583Z,29.80
2019-04-21T12:09:51.551Z,29.30
2019-04-21T12:12:23.361Z,28.70
2019-04-21T12:14:55.962Z,28.40
2019-04-21T12:17:28.359Z,28.80
2019-04-21T12:20:01.050Z,28.50
2019-04-21T12:22:35.650Z,27.80
2019-04-21T12:25:13.232Z,28.60
2019-04-21T12:27:45.705Z,27.30
2019-04-21T12:30:19.760Z,27.80
2019-04-21T12:32:57.988Z,28.30
2019-04-21T12:35:30.153Z,28.30
2019-04-21T12:38:02.781Z,28.80
2019-04-21T12:40:34.740Z,28.70
2019-04-21T12:43:08.460Z,28.60
2019-04-21T12:45:41.884Z,28.30
2019-04-21T12:48:14.002Z,28.20
2019-04-21T12:50:57.462Z,28.40
2019-04-21T12:53:34.017Z,28.90
2019-04-21T12:56:07.418Z,29.20
2019-04-21T12:58:39.805Z,28.90
2019-04-21T13:01:21.032Z,29.60
2019-04-21T13:03:57.839Z,29.60
2019-04-21T13:06:32.192Z,29.10
2019-04-21T13:09:10.725Z,29.80
2019-04-21T13:11:41.384Z,29.30
2019-04-21T13:14:13.658Z,29.70
2019-04-21T13:16:45.751Z,28.90
2019-04-21T13:19:19.092Z,28.90
2019-04-21T13:22:03.906Z,28.70
2019-04-21T13:24:37.952Z,28.70
2019-04-21T13:27:12.636Z,29.50
2019-04-21T13:29:46.155Z,28.90
2019-04-21T13:32:20.424Z,28.80
2019-04-21T13:34:52.747Z,28.50
2019-04-21T13:37:26.080Z,28.70
2019-04-21T13:40:34.177Z,28.30
2019-04-21T13:42:56.851Z,28.40
2019-04-21T13:45:27.825Z,28.90
2019-04-21T13:48:01.600Z,29.00
2019-04-21T13:50:35.267Z,29.30
2019-04-21T13:53:08.891Z,29.60
2019-04-21T13:55:42.706Z,29.50
2019-04-21T13:58:16.642Z,29.70
2019-04-21T14:00:54.097Z,30.00
2019-04-21T14:03:26.731Z,29.60
2019-04-21T14:06:00.293Z,29.50
2019-04-21T14:08:52.519Z,29.60
2019-04-21T14:11:25.148Z,29.70
2019-04-21T14:13:58.532Z,29.80
2019-04-21T14:16:31.887Z,30.10
2019-04-21T14:19:07.487Z,28.90
2019-04-21T14:21:43.943Z,29.00
2019-04-21T14:24:19.103Z,29.00
2019-04-21T14:26:52.240Z,29.50
2019-04-21T14:29:25.791Z,28.50
2019-04-21T14:31:58.091Z,28.50
2019-04-21T14:34:30.269Z,28.40
2019-04-21T14:37:04.486Z,28.30
2019-04-21T14:39:48.554Z,27.80
2019-04-21T14:42:11.985Z,27.60
2019-04-21T14:44:45.173Z,28.10
2019-04-21T14:47:44.177Z,28.40
2019-04-21T14:50:42.197Z,28.60
2019-04-21T14:53:23.513Z,28.50
2019-04-21T14:55:55.446Z,28.80
2019-04-21T14:58:29.319Z,28.90
2019-04-21T15:01:06.080Z,28.60
2019-04-21T15:03:39.829Z,28.90
2019-04-21T15:06:13.587Z,29.30
2019-04-21T15:08:46.987Z,29.20
2019-04-21T15:11:20.015Z,29.10
2019-04-21T15:13:54.080Z,29.40
2019-04-21T15:16:26.896Z,29.80
2019-04-21T15:18:59.815Z,29.70
2019-04-21T15:21:33.435Z,29.40
2019-04-21T15:24:06.514Z,29.60
2019-04-21T15:26:40.112Z,29.90
2019-04-21T15:29:13.182Z,29.80
2019-04-21T15:31:46.540Z,29.50
2019-04-21T15:34:22.119Z,29.70
2019-04-21T15:36:53.250Z,29.70
2019-04-21T15:39:25.747Z,30.30
2019-04-21T15:41:58.887Z,30.00
2019-04-21T15:44:32.412Z,29.80
2019-04-21T15:47:06.101Z,29.90
2019-04-21T15:50:03.004Z,30.20
2019-04-21T15:52:31.784Z,29.80
2019-04-21T15:55:26.559Z,30.00
2019-04-21T15:58:12.363Z,29.90
2019-04-21T16:00:52.443Z,30.00
2019-04-21T16:03:24.915Z,29.90
2019-04-21T16:05:57.445Z,30.10
2019-04-21T16:08:30.953Z,30.40
2019-04-21T16:11:07.359Z,30.50
2019-04-21T16:13:39.652Z,30.30
2019-04-21T16:16:12.736Z,30.00
2019-04-21T16:18:45.815Z,30.10
2019-04-21T16:21:18.113Z,30.40
2019-04-21T16:23:50.756Z,30.00
2019-04-21T16:26:24.579Z,30.10
2019-04-21T16:28:57.441Z,30.40
2019-04-21T16:31:32.244Z,30.10
2019-04-21T16:34:05.199Z,29.60
2019-04-21T16:36:38.038Z,29.10
2019-04-21T16:39:11.525Z,29.50
2019-04-21T16:41:44.580Z,29.10
2019-04-21T16:44:18.870Z,29.10
2019-04-21T16:46:53.680Z,29.10
2019-04-21T16:49:27.420Z,29.20
2019-04-21T16:52:18.268Z,28.90
2019-04-21T16:54:55.788Z,29.10
2019-04-21T16:57:44.335Z,29.20
2019-04-21T17:00:31.592Z,29.40
2019-04-21T17:02:56.568Z,29.40
2019-04-21T17:05:30.044Z,29.40
2019-04-21T17:08:03.974Z,29.40
2019-04-21T17:10:38.265Z,29.50
2019-04-21T17:13:11.482Z,29.20
2019-04-21T17:16:04.094Z,29.20
2019-04-21T17:18:31.602Z,29.30
2019-04-21T17:20:57.697Z,29.40
2019-04-21T17:23:29.330Z,29.20
2019-04-21T17:26:03.367Z,28.70
2019-04-21T17:28:36.379Z,28.50
2019-04-21T17:31:10.845Z,27.40
2019-04-21T17:33:43.851Z,26.80
2019-04-21T17:36:18.911Z,26.30
2019-04-21T17:38:52.259Z,25.70
2019-04-21T17:41:31.844Z,26.00
2019-04-21T17:44:00.414Z,26.70
2019-04-21T17:46:44.972Z,27.40
2019-04-21T17:49:08.746Z,27.80
2019-04-21T17:52:18.171Z,28.20
2019-04-21T17:55:06.245Z,28.10
2019-04-21T17:57:54.170Z,28.30
2019-04-21T18:00:45.174Z,28.80
2019-04-21T18:03:01.850Z,29.00
2019-04-21T18:05:39.230Z,29.50
2019-04-21T18:08:14.058Z,29.90
2019-04-21T18:10:42.324Z,30.20
2019-04-21T18:13:07.796Z,30.70
2019-04-21T18:15:50.710Z,31.20
2019-04-21T18:18:10.417Z,31.70
2019-04-21T18:20:46.118Z,32.10
2019-04-21T18:23:52.100Z,32.40
2019-04-21T18:26:29.081Z,32.80
2019-04-21T18:28:53.074Z,33.20
2019-04-21T18:31:26.373Z,33.60
2019-04-21T18:34:08.759Z,33.90
2019-04-21T18:36:45.480Z,34.10
2019-04-21T18:39:49.511Z,34.30
2019-04-21T18:42:36.064Z,34.40
2019-04-21T18:48:05.101Z,34.70
2019-04-21T18:50:50.960Z,35.00
2019-04-21T18:53:41.478Z,35.40
2019-04-21T18:56:03.735Z,35.50
2019-04-21T18:58:32.689Z,35.50
2019-04-21T19:01:11.802Z,35.80
2019-04-21T19:03:43.008Z,36.10
2019-04-21T19:06:18.803Z,36.30
2019-04-21T19:09:12.787Z,36.70
2019-04-21T19:11:33.240Z,37.00
2019-04-21T19:22:06.258Z,38.90
2019-04-21T19:24:46.555Z,38.90
2019-04-21T19:29:54.067Z,39.60
2019-04-21T19:34:40.867Z,39.70
2019-04-21T19:37:16.408Z,39.70
2019-04-21T19:40:00.449Z,40.10
2019-04-21T19:42:29.415Z,40.30
2019-04-21T19:45:11.832Z,40.60
2019-04-21T19:47:44.930Z,41.40
2019-04-21T19:50:26.395Z,41.80
2019-04-21T19:52:46.564Z,42.20
2019-04-21T19:55:09.723Z,43.10
2019-04-21T19:57:43.166Z,43.60
2019-04-21T20:00:17.471Z,44.00
2019-04-21T20:02:52.319Z,43.70
2019-04-21T20:05:36.157Z,43.90
2019-04-21T20:08:17.323Z,43.80
2019-04-21T20:10:58.022Z,43.80
2019-04-21T20:13:40.838Z,43.90
2019-04-21T20:16:03.824Z,44.20
2019-04-21T20:18:27.323Z,44.50
2019-04-21T20:20:54.324Z,44.50
2019-04-21T20:23:32.793Z,44.50
2019-04-21T20:26:04.618Z,44.70
2019-04-21T20:28:51.260Z,44.90
2019-04-21T20:31:31.588Z,45.10
2019-04-21T20:34:06.296Z,45.30
2019-04-21T20:36:41.567Z,45.70
2019-04-21T20:39:03.541Z,45.70
2019-04-21T20:41:43.449Z,45.60
2019-04-21T20:44:21.227Z,46.00
2019-04-21T20:46:58.125Z,46.20
2019-04-21T20:49:23.096Z,46.40
2019-04-21T20:52:16.440Z,46.90
2019-04-21T20:54:37.068Z,47.10
2019-04-21T20:57:12.608Z,47.60
2019-04-21T20:59:44.183Z,48.70
2019-04-21T21:02:20.275Z,48.10
2019-04-21T21:04:49.229Z,48.10
2019-04-21T21:10:04.487Z,48.80
2019-04-21T21:12:42.992Z,48.70
2019-04-21T21:15:07.268Z,48.80
2019-04-21T21:17:52.652Z,48.80
2019-04-21T21:20:26.271Z,48.90
2019-04-21T21:22:57.318Z,49.00
2019-04-21T21:25:41.398Z,49.10
2019-04-21T21:28:01.320Z,49.10
2019-04-21T21:30:37.521Z,49.20
2019-04-21T21:33:18.546Z,49.20
2019-04-21T21:35:41.162Z,49.50
2019-04-21T21:38:25.567Z,49.60
2019-04-21T21:40:54.336Z,49.90
2019-04-21T21:43:21.543Z,49.90
2019-04-21T21:45:55.387Z,50.80
2019-04-21T21:48:40.678Z,50.40
2019-04-21T21:51:06.010Z,50.50
2019-04-21T21:53:36.267Z,50.60
2019-04-21T21:56:08.983Z,50.90
2019-04-21T21:58:42.895Z,51.00
2019-04-21T22:01:20.626Z,51.10
2019-04-21T22:04:04.876Z,50.90
2019-04-21T22:06:38.702Z,50.70
2019-04-21T22:09:04.087Z,50.80
2019-04-21T22:11:38.043Z,50.60
2019-04-21T22:14:21.637Z,50.50
2019-04-21T22:16:57.834Z,50.70
2019-04-21T22:19:36.793Z,51.20
2019-04-21T22:22:09.686Z,51.70
2019-04-21T22:24:43.897Z,52.20
2019-04-21T22:27:03.067Z,52.80
2019-04-21T22:29:41.817Z,53.50
2019-04-21T22:32:15.750Z,54.00
2019-04-21T22:34:50.603Z,54.20
2019-04-21T22:37:34.828Z,54.40
2019-04-21T22:40:04.461Z,54.70
2019-04-21T22:42:33.201Z,55.10
2019-04-21T22:45:01.280Z,55.30
2019-04-21T22:47:37.876Z,55.30
2019-04-21T22:50:10.557Z,55.20
2019-04-21T22:52:43.599Z,55.80
2019-04-21T22:55:20.872Z,56.50
2019-04-21T22:57:54.475Z,56.90
2019-04-21T23:00:25.729Z,57.00
2019-04-21T23:03:09.538Z,57.50
2019-04-21T23:05:38.322Z,58.10
2019-04-21T23:08:11.058Z,59.30
2019-04-21T23:10:49.643Z,59.90
2019-04-21T23:13:23.119Z,61.00
2019-04-21T23:15:57.262Z,62.80
2019-04-21T23:18:39.791Z,67.10
2019-04-21T23:21:17.315Z,68.70
2019-04-21T23:23:57.950Z,70.90
2019-04-21T23:26:30.972Z,71.60
2019-04-21T23:29:07.495Z,70.80
2019-04-21T23:31:41.810Z,73.60
2019-04-21T23:33:55.101Z,75.00
2019-04-21T23:36:31.478Z,74.60
2019-04-21T23:39:06.931Z,78.10
2019-04-21T23:41:43.466Z,78.50
2019-04-21T23:44:14.192Z,81.00
2019-04-21T23:46:51.085Z,84.70
2019-04-21T23:49:35.352Z,87.50
2019-04-21T23:52:03.063Z,90.10
2019-04-21T23:54:31.439Z,91.40
2019-04-21T23:57:12.899Z,93.00
2019-04-21T23:59:44.901Z,92.20
